Time;durP1;ratioP1;P1;durP2;ratioP2;P2;SDS_P1;SDS_P2;PMS_P1;PMS_P2;Temp;Humidity;BMP_temperature;BMP_pressure;BME280_temperature;BME280_humidity;BME280_pressure;Samples;Min_cycle;Max_cycle;Signal;HPM_P1;HPM_P2
2023/12/07 00:01:11;;;;;;;66.03;42.03;;;4.70;94.30;;;;;;4996958;28;20053;-74
2023/12/07 00:03:38;;;;;;;60.58;37.65;;;4.80;1.00;;;;;;5012892;28;20042;-76
2023/12/07 00:06:06;;;;;;;52.95;34.60;;;4.70;1.00;;;;;;5014347;28;20041;-76
2023/12/07 00:08:34;;;;;;;54.63;35.28;;;4.60;1.00;;;;;;5015164;28;20046;-74
2023/12/07 00:11:02;;;;;;;58.10;38.05;;;4.50;1.00;;;;;;4999413;28;20054;-78
2023/12/07 00:13:31;;;;;;;56.83;36.25;;;4.50;52.40;;;;;;5020584;28;20688;-78
2023/12/07 00:15:58;;;;;;;57.13;36.47;;;4.60;99.90;;;;;;5022643;28;20528;-75
2023/12/07 00:18:26;;;;;;;56.17;36.47;;;4.50;99.90;;;;;;4989802;28;20093;-75
2023/12/07 00:20:54;;;;;;;64.30;40.05;;;4.40;1.00;;;;;;5014168;28;20049;-76
2023/12/07 00:23:21;;;;;;;67.10;41.95;;;4.40;1.00;;;;;;5015406;28;20505;-75
2023/12/07 00:25:49;;;;;;;68.10;42.50;;;4.40;1.00;;;;;;5000182;28;20043;-76
2023/12/07 00:28:17;;;;;;;69.78;42.10;;;4.40;1.00;;;;;;5016679;28;20061;-75
2023/12/07 00:30:46;;;;;;;68.35;42.83;;;4.40;1.00;;;;;;5034654;28;20059;-76
2023/12/07 00:33:14;;;;;;;63.20;40.80;;;4.40;1.00;;;;;;5015808;28;20046;-75
2023/12/07 00:35:41;;;;;;;70.68;43.88;;;4.40;1.00;;;;;;5016712;28;20046;-78
2023/12/07 00:38:10;;;;;;;67.18;41.95;;;4.50;1.00;;;;;;5030029;28;20394;-77
2023/12/07 00:40:39;;;;;;;64.78;40.05;;;4.50;1.00;;;;;;5030476;28;20046;-77
2023/12/07 00:43:07;;;;;;;50.75;31.58;;;4.60;1.00;;;;;;5032880;28;20643;-75
2023/12/07 00:45:35;;;;;;;50.47;33.50;;;4.60;1.00;;;;;;5007497;28;20269;-79
2023/12/07 00:48:04;;;;;;;51.72;32.88;;;4.60;99.90;;;;;;5010539;28;20065;-78
2023/12/07 00:50:32;;;;;;;47.10;31.83;;;4.60;99.90;;;;;;5022343;28;20050;-77
2023/12/07 00:53:00;;;;;;;45.53;29.17;;;4.50;99.90;;;;;;5022080;28;20022;-78
2023/12/07 00:55:27;;;;;;;45.47;29.90;;;4.50;99.90;;;;;;5032224;28;20069;-76
2023/12/07 00:57:55;;;;;;;46.83;29.80;;;4.60;99.90;;;;;;5014814;28;20146;-76
2023/12/07 01:00:22;;;;;;;49.35;30.25;;;4.60;99.90;;;;;;5022653;28;20505;-78
2023/12/07 01:02:51;;;;;;;45.88;30.38;;;4.70;99.90;;;;;;5013441;28;20037;-78
2023/12/07 01:05:20;;;;;;;45.53;27.85;;;4.80;99.90;;;;;;5012665;28;20030;-77
2023/12/07 01:07:47;;;;;;;47.88;30.35;;;4.80;1.00;;;;;;4995420;28;20073;-77
2023/12/07 01:10:15;;;;;;;50.10;31.60;;;4.80;1.00;;;;;;5012576;28;20057;-74
2023/12/07 01:12:43;;;;;;;46.10;29.70;;;4.80;1.00;;;;;;5012364;28;20070;-78
2023/12/07 01:15:10;;;;;;;52.75;30.05;;;4.70;1.00;;;;;;5012587;28;20041;-79
2023/12/07 01:17:38;;;;;;;49.03;29.77;;;4.70;1.00;;;;;;5013248;28;20501;-74
2023/12/07 01:20:11;;;;;;;51.60;30.58;;;4.70;1.00;;;;;;5013161;28;20046;-78
2023/12/07 01:22:41;;;;;;;60.88;34.80;;;4.80;1.00;;;;;;4995412;28;20483;-77
2023/12/07 01:25:09;;;;;;;52.28;28.98;;;4.80;1.00;;;;;;5012707;28;20048;-78
2023/12/07 01:27:37;;;;;;;56.30;34.00;;;4.70;99.90;;;;;;5012568;28;20042;-78
2023/12/07 01:30:06;;;;;;;52.03;29.88;;;4.70;1.00;;;;;;4995552;28;20053;-78
2023/12/07 01:32:34;;;;;;;57.58;31.40;;;4.60;1.00;;;;;;4995183;28;20053;-79
2023/12/07 01:35:02;;;;;;;53.22;30.42;;;4.70;1.00;;;;;;4995228;28;20046;-78
2023/12/07 01:37:30;;;;;;;55.47;31.23;;;4.70;99.90;;;;;;5013323;28;20053;-77
2023/12/07 01:39:59;;;;;;;44.53;27.15;;;4.70;99.90;;;;;;4995924;28;20050;-77
2023/12/07 01:42:27;;;;;;;46.00;27.48;;;4.80;99.90;;;;;;5013623;28;20046;-79
2023/12/07 01:44:54;;;;;;;41.38;26.08;;;4.70;99.90;;;;;;4996693;28;20049;-79
2023/12/07 01:47:22;;;;;;;47.05;28.42;;;4.80;99.90;;;;;;5013440;28;20041;-79
2023/12/07 01:49:50;;;;;;;47.17;28.50;;;4.80;99.90;;;;;;4994397;28;20046;-76
2023/12/07 01:52:20;;;;;;;48.17;29.75;;;4.80;99.90;;;;;;4995714;28;20096;-77
2023/12/07 01:54:47;;;;;;;48.47;29.35;;;4.80;1.00;;;;;;5011850;28;20050;-76
2023/12/07 01:57:17;;;;;;;42.95;26.40;;;4.90;1.00;;;;;;5013937;28;20038;-74
2023/12/07 01:59:44;;;;;;;45.83;27.45;;;4.90;99.90;;;;;;5030017;28;20069;-75
2023/12/07 02:02:12;;;;;;;49.75;31.80;;;4.90;99.90;;;;;;5016897;28;20540;-76
2023/12/07 02:04:40;;;;;;;51.50;31.30;;;4.90;99.90;;;;;;5017721;28;20050;-78
2023/12/07 02:07:09;;;;;;;55.13;32.97;;;4.90;1.00;;;;;;5029747;28;20030;-76
2023/12/07 02:09:36;;;;;;;57.97;33.05;;;5.00;1.00;;;;;;4995418;28;20551;-78
2023/12/07 02:12:04;;;;;;;61.03;35.05;;;5.00;1.00;;;;;;5011534;28;20053;-76
2023/12/07 02:14:34;;;;;;;64.40;37.63;;;5.00;1.00;;;;;;5031224;28;20111;-77
2023/12/07 02:17:10;;;;;;;70.32;39.90;;;5.10;1.00;;;;;;5009214;28;20042;-78
2023/12/07 02:19:54;;;;;;;66.85;38.30;;;5.00;1.00;;;;;;5010926;28;20042;-77
2023/12/07 02:22:28;;;;;;;63.35;37.65;;;5.00;1.00;;;;;;4994361;28;20454;-78
2023/12/07 02:25:08;;;;;;;63.78;38.42;;;5.00;1.00;;;;;;5009349;28;20048;-76
2023/12/07 02:27:42;;;;;;;61.67;37.13;;;4.90;1.00;;;;;;4997457;28;20050;-78
2023/12/07 02:30:11;;;;;;;58.83;37.05;;;5.00;14.70;;;;;;5014494;28;20046;-76
2023/12/07 02:32:39;;;;;;;56.38;35.40;;;5.00;1.00;;;;;;5011370;28;20074;-78
2023/12/07 02:35:15;;;;;;;59.10;35.95;;;5.00;1.00;;;;;;5009779;28;20041;-77
2023/12/07 02:37:43;;;;;;;;;;;5.00;1.00;;;;;;4994435;28;20433;-78
2023/12/07 02:40:14;;;;;;;54.90;34.28;;;5.00;1.00;;;;;;5000511;28;19925;-78
2023/12/07 02:42:44;;;;;;;52.72;35.15;;;5.00;1.00;;;;;;5009645;28;20069;-78
2023/12/07 02:45:12;;;;;;;50.13;34.53;;;5.00;1.00;;;;;;5017308;28;20444;-78
2023/12/07 02:47:40;;;;;;;53.30;34.92;;;5.00;1.00;;;;;;5034146;28;20025;-77
2023/12/07 02:50:09;;;;;;;51.53;32.95;;;5.10;1.00;;;;;;5014271;28;20049;-76
2023/12/07 02:52:37;;;;;;;51.15;34.00;;;5.10;1.00;;;;;;5017507;28;20049;-75
2023/12/07 02:55:06;;;;;;;49.67;32.33;;;5.10;1.00;;;;;;4998226;28;20058;-78
2023/12/07 02:57:33;;;;;;;47.33;30.85;;;5.20;1.00;;;;;;5012063;28;20038;-79
2023/12/07 03:00:06;;;;;;;48.33;30.05;;;5.20;1.00;;;;;;4992393;28;20508;-78
2023/12/07 03:02:34;;;;;;;46.28;28.83;;;5.20;1.00;;;;;;4985141;28;20046;-79
2023/12/07 03:05:02;;;;;;;45.08;29.23;;;5.20;1.00;;;;;;4996973;28;20042;-80
2023/12/07 03:07:30;;;;;;;46.72;27.90;;;5.10;1.00;;;;;;4997168;28;20073;-78
2023/12/07 03:09:58;;;;;;;40.90;26.77;;;5.20;1.00;;;;;;4996775;28;20054;-77
2023/12/07 03:12:25;;;;;;;41.03;26.08;;;5.30;1.00;;;;;;5014503;28;20053;-78
2023/12/07 03:14:53;;;;;;;41.00;26.05;;;5.20;1.00;;;;;;4995738;28;20430;-78
2023/12/07 03:17:22;;;;;;;41.20;25.95;;;5.10;1.00;;;;;;5003355;28;20049;-77
2023/12/07 03:19:50;;;;;;;41.65;25.52;;;5.10;1.00;;;;;;5014371;28;20069;-79
2023/12/07 03:22:18;;;;;;;42.45;25.85;;;5.10;1.00;;;;;;4997091;28;20042;-78
2023/12/07 03:24:49;;;;;;;40.42;24.42;;;5.10;1.00;;;;;;4995836;28;20062;-76
2023/12/07 03:27:16;;;;;;;40.30;25.05;;;5.10;1.00;;;;;;5010964;28;20058;-80
2023/12/07 03:29:44;;;;;;;44.38;24.05;;;5.10;1.00;;;;;;4995544;28;20251;-79
2023/12/07 03:32:11;;;;;;;41.08;24.05;;;5.20;1.00;;;;;;5011928;28;20034;-75
2023/12/07 03:34:41;;;;;;;40.72;24.33;;;5.20;1.00;;;;;;4995998;28;20482;-80
2023/12/07 03:37:08;;;;;;;43.25;24.13;;;5.20;1.00;;;;;;4995866;28;20042;-78
2023/12/07 03:39:36;;;;;;;39.20;23.48;;;5.10;1.00;;;;;;5013426;28;20069;-79
2023/12/07 03:42:04;;;;;;;41.28;24.38;;;5.10;1.00;;;;;;5013278;28;20041;-78
2023/12/07 03:44:32;;;;;;;37.80;22.65;;;5.10;1.00;;;;;;5014999;28;20030;-77
2023/12/07 03:47:01;;;;;;;38.17;22.75;;;5.10;1.00;;;;;;4998215;28;20050;-74
2023/12/07 03:49:29;;;;;;;41.35;23.42;;;5.10;1.00;;;;;;5015467;28;20052;-76
2023/12/07 03:51:58;;;;;;;35.13;21.08;;;4.90;75.40;;;;;;5016874;28;20049;-75
2023/12/07 03:54:27;;;;;;;33.80;20.60;;;4.90;99.90;;;;;;5019752;28;20061;-74
2023/12/07 03:56:55;;;;;;;34.97;19.23;;;4.90;99.90;;;;;;5029417;28;20061;-74
2023/12/07 03:59:22;;;;;;;32.03;20.70;;;4.80;99.90;;;;;;5015984;28;20038;-74
2023/12/07 04:01:58;;;;;;;31.35;19.60;;;4.70;99.90;;;;;;4997111;28;20371;-77
2023/12/07 04:04:26;;;;;;;35.60;21.05;;;4.80;99.90;;;;;;5013604;28;20042;-79
2023/12/07 04:06:53;;;;;;;31.15;19.52;;;4.80;99.90;;;;;;5015531;28;20505;-76
2023/12/07 04:09:22;;;;;;;27.90;17.98;;;4.80;99.90;;;;;;4998214;28;20398;-75
2023/12/07 04:11:50;;;;;;;37.42;24.30;;;4.70;99.90;;;;;;5017606;28;20033;-77
2023/12/07 04:14:18;;;;;;;30.50;20.30;;;4.70;99.90;;;;;;5015030;28;20061;-76
2023/12/07 04:16:46;;;;;;;29.50;19.30;;;4.70;99.90;;;;;;5014271;28;20098;-76
2023/12/07 04:19:13;;;;;;;31.55;19.52;;;4.70;99.90;;;;;;4990820;28;20113;-78
2023/12/07 04:21:41;;;;;;;29.40;18.38;;;4.60;99.90;;;;;;5015942;28;20556;-79
2023/12/07 04:24:09;;;;;;;28.80;17.33;;;4.60;99.90;;;;;;5016119;28;20038;-77
2023/12/07 04:26:38;;;;;;;28.27;18.00;;;4.60;99.90;;;;;;5008220;28;20042;-74
2023/12/07 04:29:05;;;;;;;30.13;19.05;;;4.70;99.90;;;;;;5037022;28;20053;-74
2023/12/07 04:31:35;;;;;;;28.05;19.42;;;4.70;99.90;;;;;;5037495;28;20049;-77
2023/12/07 04:34:03;;;;;;;28.48;18.30;;;4.50;99.90;;;;;;5019100;28;20046;-76
2023/12/07 04:36:30;;;;;;;28.23;20.02;;;4.60;99.90;;;;;;5020202;28;20064;-74
2023/12/07 04:39:00;;;;;;;30.83;20.42;;;4.50;99.90;;;;;;5020166;28;20044;-76
2023/12/07 04:41:30;;;;;;;30.02;20.75;;;4.50;99.90;;;;;;5005258;28;20077;-75
2023/12/07 04:43:59;;;;;;;32.92;20.40;;;4.60;99.90;;;;;;5014277;28;20033;-75
2023/12/07 04:46:28;;;;;;;30.13;18.80;;;4.60;99.90;;;;;;4996379;28;20050;-75
2023/12/07 04:48:55;;;;;;;28.58;20.13;;;4.60;99.90;;;;;;5014481;28;20034;-74
2023/12/07 04:51:22;;;;;;;26.55;18.73;;;4.60;99.90;;;;;;5029838;28;20056;-77
2023/12/07 04:53:50;;;;;;;26.67;18.98;;;4.60;99.90;;;;;;5034935;28;20036;-76
2023/12/07 04:56:17;;;;;;;30.85;20.48;;;4.60;99.90;;;;;;5036373;28;20053;-78
2023/12/07 04:58:45;;;;;;;28.95;19.88;;;4.50;99.90;;;;;;5034440;28;20053;-76
2023/12/07 05:01:14;;;;;;;31.92;21.17;;;4.50;99.90;;;;;;5030004;28;20477;-79
2023/12/07 05:03:42;;;;;;;30.75;21.15;;;4.50;99.90;;;;;;5033119;28;20080;-74
2023/12/07 05:06:10;;;;;;;32.38;21.65;;;4.50;99.90;;;;;;5019361;28;20076;-75
2023/12/07 05:08:38;;;;;;;35.28;22.65;;;4.40;99.90;;;;;;5036011;28;20094;-75
2023/12/07 05:11:06;;;;;;;35.08;24.40;;;4.50;99.90;;;;;;5020295;28;20077;-77
2023/12/07 05:13:35;;;;;;;40.80;26.00;;;4.40;99.90;;;;;;5036540;28;20029;-76
2023/12/07 05:16:03;;;;;;;41.97;25.88;;;4.40;99.90;;;;;;5035456;28;20045;-75
2023/12/07 05:18:33;;;;;;;45.90;27.48;;;4.30;99.90;;;;;;5031330;28;20042;-76
2023/12/07 05:21:00;;;;;;;41.83;27.50;;;4.30;99.90;;;;;;5012387;28;20050;-77
2023/12/07 05:23:28;;;;;;;43.33;28.15;;;4.30;99.90;;;;;;5019430;28;20077;-74
2023/12/07 05:25:56;;;;;;;42.35;27.63;;;4.40;99.90;;;;;;5031024;28;20050;-76
2023/12/07 05:28:23;;;;;;;46.60;29.83;;;4.40;99.90;;;;;;5030413;28;20044;-77
2023/12/07 05:30:52;;;;;;;49.85;31.42;;;4.40;99.90;;;;;;5019312;28;20068;-78
2023/12/07 05:33:20;;;;;;;53.33;33.85;;;4.30;99.90;;;;;;5012137;28;20038;-78
2023/12/07 05:35:50;;;;;;;47.47;31.00;;;4.30;99.90;;;;;;4994335;28;20517;-77
2023/12/07 05:38:17;;;;;;;54.42;36.03;;;4.30;99.90;;;;;;4995209;28;20050;-77
2023/12/07 05:40:45;;;;;;;45.17;29.95;;;4.20;99.90;;;;;;4995052;28;20096;-77
2023/12/07 05:43:13;;;;;;;42.67;29.30;;;4.20;99.90;;;;;;4994388;28;20058;-77
2023/12/07 05:45:40;;;;;;;38.47;25.50;;;4.10;99.90;;;;;;4994205;28;20044;-78
2023/12/07 05:48:08;;;;;;;33.95;22.55;;;4.20;99.90;;;;;;5012423;28;20056;-76
2023/12/07 05:50:39;;;;;;;34.20;23.42;;;4.20;99.90;;;;;;5016711;28;20084;-75
2023/12/07 05:53:08;;;;;;;39.72;25.02;;;4.20;99.90;;;;;;5012115;28;20103;-76
2023/12/07 05:55:36;;;;;;;40.58;24.38;;;4.20;99.90;;;;;;4995875;28;20054;-77
2023/12/07 05:58:04;;;;;;;42.75;27.02;;;4.30;99.90;;;;;;5013158;28;20073;-77
2023/12/07 06:00:32;;;;;;;45.65;29.45;;;4.30;99.90;;;;;;5013378;28;20094;-73
2023/12/07 06:03:00;;;;;;;46.70;29.60;;;4.40;99.90;;;;;;4995432;28;20056;-73
2023/12/07 06:05:31;;;;;;;46.97;26.27;;;4.40;99.90;;;;;;5031391;28;20042;-75
2023/12/07 06:07:59;;;;;;;40.63;26.13;;;4.50;99.90;;;;;;5030748;28;20058;-77
2023/12/07 06:10:28;;;;;;;37.90;23.63;;;4.50;99.90;;;;;;5022736;28;20062;-76
2023/12/07 06:12:56;;;;;;;32.85;19.63;;;4.60;99.90;;;;;;5016637;28;20069;-74
2023/12/07 06:15:24;;;;;;;29.63;19.02;;;4.50;99.90;;;;;;5015928;28;20037;-73
2023/12/07 06:17:51;;;;;;;38.75;21.83;;;4.40;99.90;;;;;;5014033;28;20045;-76
2023/12/07 06:20:20;;;;;;;65.43;33.47;;;4.60;99.90;;;;;;5014163;28;20084;-75
2023/12/07 06:22:49;;;;;;;62.20;35.65;;;4.50;99.90;;;;;;5014928;28;20037;-75
2023/12/07 06:25:17;;;;;;;78.28;41.58;;;4.50;99.90;;;;;;4997554;28;20042;-76
2023/12/07 06:27:46;;;;;;;69.03;36.92;;;4.50;99.90;;;;;;4995799;28;20046;-78
2023/12/07 06:30:14;;;;;;;60.67;35.42;;;4.50;99.90;;;;;;5012162;28;20030;-75
2023/12/07 06:32:42;;;;;;;59.42;33.65;;;4.50;99.90;;;;;;5012544;28;20133;-74
2023/12/07 06:35:13;;;;;;;50.42;31.15;;;4.50;99.90;;;;;;5011751;28;20494;-75
2023/12/07 06:37:41;;;;;;;52.90;29.48;;;4.50;99.90;;;;;;5012147;28;20101;-77
2023/12/07 06:40:11;;;;;;;49.22;28.60;;;4.60;99.90;;;;;;5011246;28;20050;-76
2023/12/07 06:42:39;;;;;;;51.08;28.67;;;4.60;99.90;;;;;;5012305;28;20057;-79
2023/12/07 06:45:10;;;;;;;59.20;32.65;;;4.50;99.90;;;;;;5012030;28;20033;-79
2023/12/07 06:47:38;;;;;;;63.00;35.63;;;4.60;99.90;;;;;;4995181;28;20048;-75
2023/12/07 06:50:10;;;;;;;57.85;33.72;;;4.50;99.90;;;;;;4995361;28;20257;-73
2023/12/07 06:52:38;;;;;;;49.17;28.92;;;4.60;99.90;;;;;;5012691;28;20042;-76
2023/12/07 06:55:09;;;;;;;79.07;43.85;;;4.50;99.90;;;;;;5012406;28;20378;-79
2023/12/07 06:57:37;;;;;;;78.10;48.88;;;4.50;99.90;;;;;;4997232;28;20121;-76
2023/12/07 07:00:10;;;;;;;80.55;48.92;;;4.60;99.90;;;;;;4995331;28;20229;-77
2023/12/07 07:02:38;;;;;;;82.00;51.22;;;4.70;99.90;;;;;;4994447;28;20104;-76
2023/12/07 07:05:07;;;;;;;80.65;50.30;;;4.70;99.90;;;;;;4993895;28;20054;-78
2023/12/07 07:07:35;;;;;;;71.47;44.67;;;4.60;99.90;;;;;;5010776;28;20046;-79
2023/12/07 07:10:03;;;;;;;78.10;47.22;;;4.30;99.90;;;;;;4995286;28;20109;-76
2023/12/07 07:12:31;;;;;;;89.82;54.63;;;4.40;99.90;;;;;;4993221;28;20054;-74
2023/12/07 07:14:58;;;;;;;77.65;48.05;;;4.60;99.90;;;;;;5011933;28;20096;-75
2023/12/07 07:17:28;;;;;;;79.82;47.53;;;4.80;99.90;;;;;;4994060;28;20041;-74
2023/12/07 07:19:58;;;;;;;74.65;41.85;;;4.90;99.90;;;;;;5013135;28;20095;-74
2023/12/07 07:22:26;;;;;;;62.92;39.05;;;4.90;99.90;;;;;;4995754;28;20079;-78
2023/12/07 07:24:53;;;;;;;60.88;38.60;;;4.90;99.00;;;;;;4994096;28;20042;-77
2023/12/07 07:27:23;;;;;;;58.65;38.25;;;4.90;52.10;;;;;;5013314;28;20073;-78
2023/12/07 07:29:51;;;;;;;54.65;35.63;;;4.90;1.00;;;;;;5005654;28;20050;-78
2023/12/07 07:32:19;;;;;;;52.05;34.33;;;4.90;1.00;;;;;;4996259;28;20085;-78
2023/12/07 07:34:48;;;;;;;58.80;38.08;;;4.90;1.00;;;;;;4997435;28;20054;-77
2023/12/07 07:37:16;;;;;;;67.40;43.90;;;4.80;1.00;;;;;;4997959;28;20413;-75
2023/12/07 07:39:44;;;;;;;67.47;46.92;;;4.40;1.00;;;;;;4997172;28;20054;-77
2023/12/07 07:42:12;;;;;;;66.25;48.10;;;4.30;99.90;;;;;;5013548;28;20052;-78
2023/12/07 07:44:39;;;;;;;72.75;48.72;;;4.20;99.90;;;;;;4996893;28;20061;-74
2023/12/07 07:47:07;;;;;;;82.70;54.05;;;4.30;99.90;;;;;;5000726;28;20521;-76
2023/12/07 07:49:35;;;;;;;89.75;59.25;;;4.30;99.90;;;;;;5023517;28;20128;-73
2023/12/07 07:52:05;;;;;;;74.55;51.03;;;4.30;99.90;;;;;;5027977;28;20053;-77
2023/12/07 07:54:33;;;;;;;69.97;50.67;;;4.30;99.90;;;;;;5030741;28;20132;-79
2023/12/07 07:57:01;;;;;;;75.68;52.97;;;4.30;99.90;;;;;;4998484;28;20034;-77
2023/12/07 07:59:28;;;;;;;68.07;47.97;;;4.30;99.90;;;;;;5015652;28;20056;-78
2023/12/07 08:01:59;;;;;;;68.38;50.55;;;4.50;99.90;;;;;;4999000;28;20572;-76
2023/12/07 08:04:26;;;;;;;64.28;46.38;;;4.60;99.90;;;;;;5018342;28;20050;-77
2023/12/07 08:06:54;;;;;;;84.65;56.80;;;4.60;99.90;;;;;;5017913;28;20100;-76
2023/12/07 08:09:23;;;;;;;87.07;59.55;;;4.70;99.90;;;;;;5004307;28;20054;-77
2023/12/07 08:11:51;;;;;;;64.82;44.22;;;4.80;99.90;;;;;;5008472;28;20049;-74
2023/12/07 08:14:19;;;;;;;71.07;47.70;;;4.70;70.90;;;;;;5019663;28;20641;-76
2023/12/07 08:16:47;;;;;;;80.70;54.00;;;4.70;99.90;;;;;;5016248;28;20274;-78
2023/12/07 08:19:15;;;;;;;103.82;67.18;;;4.70;74.80;;;;;;5017906;28;20037;-76
2023/12/07 08:21:43;;;;;;;93.68;59.35;;;4.70;99.90;;;;;;4997627;28;20105;-75
2023/12/07 08:24:12;;;;;;;95.28;62.05;;;5.00;99.90;;;;;;5014007;28;20049;-77
2023/12/07 08:26:42;;;;;;;100.43;61.78;;;5.20;99.90;;;;;;5017782;28;20049;-76
2023/12/07 08:29:10;;;;;;;90.70;55.35;;;5.30;99.90;;;;;;5017485;28;20042;-77
2023/12/07 08:31:38;;;;;;;83.68;50.10;;;5.30;99.90;;;;;;5015387;28;20696;-75
2023/12/07 08:34:06;;;;;;;78.07;46.25;;;5.40;99.90;;;;;;5013480;28;20072;-76
2023/12/07 08:36:34;;;;;;;79.63;46.75;;;5.40;99.90;;;;;;5017596;28;20136;-74
2023/12/07 08:39:02;;;;;;;86.20;46.83;;;5.30;99.90;;;;;;5003305;28;20137;-75
2023/12/07 08:41:29;;;;;;;85.70;47.72;;;5.30;99.90;;;;;;5026931;28;20052;-74
2023/12/07 08:43:59;;;;;;;87.55;50.65;;;5.30;99.90;;;;;;5001774;28;20072;-75
2023/12/07 08:46:26;;;;;;;89.13;51.75;;;5.30;99.90;;;;;;5017060;28;20486;-75
2023/12/07 08:48:56;;;;;;;79.97;45.30;;;5.30;99.90;;;;;;5001067;28;20076;-76
2023/12/07 08:51:23;;;;;;;94.68;49.28;;;5.40;99.90;;;;;;5001727;28;20446;-76
2023/12/07 08:53:51;;;;;;;93.25;49.35;;;5.40;90.00;;;;;;5000554;28;20050;-75
2023/12/07 08:56:22;;;;;;;97.13;54.08;;;5.60;23.40;;;;;;5002255;28;20068;-74
2023/12/07 08:58:52;;;;;;;98.97;54.88;;;5.70;1.00;;;;;;5023767;28;20040;-75
2023/12/07 09:01:21;;;;;;;95.38;55.85;;;5.90;1.00;;;;;;5016542;28;20060;-74
2023/12/07 09:03:49;;;;;;;92.45;52.60;;;6.00;1.00;;;;;;5017951;28;20030;-75
2023/12/07 09:06:17;;;;;;;88.97;50.08;;;6.10;99.90;;;;;;5017600;28;20046;-76
2023/12/07 09:08:47;;;;;;;84.85;48.05;;;6.20;25.80;;;;;;4997723;28;20100;-75
2023/12/07 09:11:14;;;;;;;78.95;44.95;;;6.30;99.90;;;;;;4998146;28;20061;-78
2023/12/07 09:13:42;;;;;;;78.95;45.80;;;6.20;99.90;;;;;;5014333;28;20092;-75
2023/12/07 09:16:10;;;;;;;85.35;48.35;;;6.20;1.00;;;;;;4998456;28;20053;-77
2023/12/07 09:18:39;;;;;;;78.85;44.08;;;6.30;98.70;;;;;;5015040;28;20045;-76
2023/12/07 09:21:07;;;;;;;75.22;40.53;;;6.40;1.00;;;;;;5014591;28;20072;-76
2023/12/07 09:23:37;;;;;;;81.28;40.22;;;6.40;1.00;;;;;;5029005;28;20215;-77
2023/12/07 09:26:05;;;;;;;74.85;38.38;;;6.40;99.90;;;;;;5018073;28;20033;-77
2023/12/07 09:28:32;;;;;;;75.80;40.53;;;6.30;1.00;;;;;;5011711;28;20053;-74
2023/12/07 09:31:00;;;;;;;78.95;39.08;;;5.90;99.90;;;;;;5019980;28;20062;-78
2023/12/07 09:33:28;;;;;;;76.38;40.30;;;5.70;99.90;;;;;;4996841;28;20105;-76
2023/12/07 09:35:58;;;;;;;78.10;42.28;;;5.80;1.00;;;;;;4998342;28;20080;-76
2023/12/07 09:38:25;;;;;;;82.47;44.58;;;5.90;1.00;;;;;;5016461;28;20052;-77
2023/12/07 09:40:55;;;;;;;85.82;44.65;;;5.90;99.90;;;;;;5017605;28;20126;-74
2023/12/07 09:43:23;;;;;;;82.03;44.03;;;5.80;99.90;;;;;;5018101;28;20046;-76
2023/12/07 09:45:55;;;;;;;83.75;45.13;;;5.90;1.00;;;;;;5014753;28;20034;-76
2023/12/07 09:48:24;;;;;;;84.68;45.22;;;5.90;1.00;;;;;;5014191;28;20046;-76
2023/12/07 09:50:53;;;;;;;80.03;43.53;;;5.90;96.30;;;;;;4995102;28;20042;-78
2023/12/07 09:53:23;;;;;;;82.60;41.60;;;5.80;1.00;;;;;;5012488;28;20560;-74
2023/12/07 09:55:51;;;;;;;74.15;42.80;;;5.80;1.00;;;;;;5016133;28;20041;-77
2023/12/07 09:58:19;;;;;;;75.53;41.78;;;5.80;1.00;;;;;;5008759;28;20048;-77
2023/12/07 10:00:49;;;;;;;85.10;45.15;;;5.90;1.00;;;;;;5028676;28;20038;-75
2023/12/07 10:03:23;;;;;;;77.53;42.55;;;5.90;99.90;;;;;;5013219;28;20069;-75
2023/12/07 10:05:58;;;;;;;76.82;41.63;;;6.10;1.00;;;;;;5006226;28;20046;-75
2023/12/07 10:08:31;;;;;;;76.33;40.33;;;6.20;99.90;;;;;;5013232;28;20038;-74
2023/12/07 10:11:07;;;;;;;80.22;45.47;;;6.30;99.90;;;;;;5012187;28;20044;-77
2023/12/07 10:13:35;;;;;;;94.80;53.50;;;6.40;1.00;;;;;;4994568;28;20052;-75
2023/12/07 10:16:14;;;;;;;110.25;65.28;;;6.50;94.70;;;;;;4997818;28;20068;-77
2023/12/07 10:18:43;;;;;;;105.22;61.92;;;6.70;26.90;;;;;;4996521;28;20050;-74
2023/12/07 10:21:11;;;;;;;115.00;65.03;;;6.80;1.00;;;;;;5014322;28;20038;-75
2023/12/07 10:23:46;;;;;;;102.43;62.20;;;6.80;1.00;;;;;;5003611;28;20050;-75
2023/12/07 10:26:15;;;;;;;97.13;58.63;;;6.80;1.00;;;;;;5023059;28;20301;-74
2023/12/07 10:28:43;;;;;;;100.45;61.83;;;7.00;1.00;;;;;;5020624;28;20042;-74
2023/12/07 10:31:11;;;;;;;93.85;55.88;;;6.90;99.90;;;;;;5010480;28;20049;-76
2023/12/07 10:33:42;;;;;;;97.75;54.70;;;7.00;99.90;;;;;;5022407;28;20064;-76
2023/12/07 10:36:11;;;;;;;96.22;52.92;;;7.00;1.00;;;;;;5020120;28;20045;-76
2023/12/07 10:38:41;;;;;;;100.40;54.25;;;7.00;1.00;;;;;;5004508;28;20445;-76
2023/12/07 10:41:13;;;;;;;99.50;55.95;;;6.90;1.00;;;;;;5021688;28;20037;-75
2023/12/07 10:43:46;;;;;;;95.32;53.75;;;6.80;1.00;;;;;;5000339;28;20058;-77
2023/12/07 10:46:17;;;;;;;97.60;53.75;;;6.70;74.40;;;;;;5015943;28;20038;-76
2023/12/07 10:48:47;;;;;;;100.78;57.33;;;6.50;99.90;;;;;;5018363;28;20107;-73
2023/12/07 10:51:23;;;;;;;99.40;57.33;;;6.40;99.90;;;;;;4999643;28;20046;-74
2023/12/07 10:53:54;;;;;;;106.22;60.38;;;6.20;1.00;;;;;;4998995;28;20042;-74
2023/12/07 10:56:30;;;;;;;94.88;52.45;;;6.20;99.90;;;;;;4997051;28;20437;-78
2023/12/07 10:58:59;;;;;;;93.95;53.25;;;6.40;1.00;;;;;;4997855;28;20046;-76
2023/12/07 11:01:31;;;;;;;78.68;44.85;;;6.60;1.00;;;;;;5013682;28;20429;-77
2023/12/07 11:04:00;;;;;;;70.55;39.90;;;6.40;1.00;;;;;;5014178;28;20097;-76
2023/12/07 11:06:27;;;;;;;58.53;32.85;;;6.50;99.90;;;;;;5017441;28;20034;-76
2023/12/07 11:09:00;;;;;;;58.67;32.97;;;6.50;1.00;;;;;;5000312;28;20046;-75
2023/12/07 11:11:32;;;;;;;66.50;35.55;;;6.40;1.00;;;;;;4993910;28;20050;-76
2023/12/07 11:14:04;;;;;;;58.63;32.85;;;6.50;1.00;;;;;;4998839;28;20485;-78
2023/12/07 11:16:32;;;;;;;58.85;33.17;;;6.70;47.00;;;;;;5012822;28;20069;-75
2023/12/07 11:19:01;;;;;;;56.65;31.67;;;6.70;99.90;;;;;;5013883;28;20574;-75
2023/12/07 11:21:30;;;;;;;62.15;33.05;;;6.50;1.00;;;;;;5013624;28;20517;-76
2023/12/07 11:24:02;;;;;;;66.85;36.95;;;6.20;1.00;;;;;;4999678;28;20104;-75
2023/12/07 11:26:29;;;;;;;66.78;34.90;;;6.30;20.30;;;;;;5001084;28;20112;-75
2023/12/07 11:28:58;;;;;;;60.67;34.05;;;6.40;1.00;;;;;;5001890;28;20076;-76
2023/12/07 11:31:27;;;;;;;53.90;31.35;;;6.60;1.00;;;;;;4998752;28;20084;-77
2023/12/07 11:33:59;;;;;;;58.55;32.80;;;6.80;1.00;;;;;;5000338;28;20061;-77
2023/12/07 11:36:27;;;;;;;67.68;37.45;;;7.00;99.90;;;;;;4997741;28;20049;-76
2023/12/07 11:39:20;;;;;;;70.85;37.50;;;7.10;1.00;;;;;;4998864;28;20137;-74
2023/12/07 11:41:54;;;;;;;71.43;36.80;;;7.10;99.90;;;;;;5000187;28;20049;-74
2023/12/07 11:44:33;;;;;;;59.25;32.15;;;7.10;99.90;;;;;;5015099;28;20050;-76
2023/12/07 11:47:01;;;;;;;52.20;29.75;;;7.10;99.90;;;;;;4995857;28;20046;-75
2023/12/07 11:49:30;;;;;;;50.65;26.80;;;6.80;1.00;;;;;;4986553;28;20427;-72
2023/12/07 11:51:58;;;;;;;47.50;28.42;;;6.70;1.00;;;;;;5015379;28;20102;-73
2023/12/07 11:54:27;;;;;;;51.92;27.63;;;6.60;1.00;;;;;;5019076;28;20065;-76
2023/12/07 11:56:55;;;;;;;46.17;29.23;;;6.30;99.90;;;;;;5003382;28;20518;-76
2023/12/07 11:59:25;;;;;;;44.08;24.67;;;6.00;99.90;;;;;;4999610;28;20082;-75
2023/12/07 12:01:53;;;;;;;32.90;21.50;;;5.60;1.00;;;;;;5018125;28;20049;-74
2023/12/07 12:04:26;;;;;;;40.75;26.52;;;5.60;99.90;;;;;;5018082;28;20482;-76
2023/12/07 12:06:54;;;;;;;40.67;24.58;;;5.50;99.90;;;;;;5021603;28;20033;-75
2023/12/07 12:09:22;;;;;;;33.08;20.98;;;5.40;99.90;;;;;;4998577;28;20045;-77
2023/12/07 12:11:52;;;;;;;30.95;18.80;;;5.50;99.90;;;;;;5018420;28;20046;-77
2023/12/07 12:14:21;;;;;;;22.88;15.52;;;5.60;99.90;;;;;;5017669;28;20564;-77
2023/12/07 12:16:50;;;;;;;20.10;14.23;;;5.70;99.90;;;;;;5000742;28;20085;-79
2023/12/07 12:19:19;;;;;;;24.02;14.90;;;5.60;99.90;;;;;;5017954;28;20038;-75
2023/12/07 12:21:48;;;;;;;21.40;14.85;;;5.60;99.90;;;;;;5021239;28;20041;-76
2023/12/07 12:24:16;;;;;;;18.80;12.15;;;5.70;99.90;;;;;;5021446;28;20050;-76
2023/12/07 12:26:45;;;;;;;21.58;13.45;;;5.80;99.90;;;;;;4999693;28;20409;-75
2023/12/07 12:29:14;;;;;;;19.42;13.18;;;5.80;99.90;;;;;;5001941;28;20046;-78
2023/12/07 12:31:42;;;;;;;18.60;13.07;;;5.80;99.90;;;;;;5017793;28;20413;-77
2023/12/07 12:34:12;;;;;;;18.52;12.80;;;6.00;99.90;;;;;;5015004;28;20053;-76
2023/12/07 12:36:41;;;;;;;16.88;11.73;;;6.00;99.90;;;;;;5000372;28;20046;-76
2023/12/07 12:39:09;;;;;;;16.38;12.02;;;6.20;99.90;;;;;;5017602;28;20046;-76
2023/12/07 12:41:39;;;;;;;17.98;13.02;;;6.20;99.90;;;;;;5010270;28;20046;-78
2023/12/07 12:44:07;;;;;;;17.85;12.57;;;6.20;99.90;;;;;;5018506;28;20053;-77
2023/12/07 12:46:37;;;;;;;18.17;11.55;;;6.40;99.90;;;;;;5011810;28;20144;-75
2023/12/07 12:49:05;;;;;;;18.65;12.27;;;6.50;1.00;;;;;;5008513;28;20050;-76